Time;durP1;ratioP1;P1;durP2;ratioP2;P2;SDS_P1;SDS_P2;PMS_P1;PMS_P2;Temp;Humidity;BMP_temperature;BMP_pressure;BME280_temperature;BME280_humidity;BME280_pressure;Samples;Min_cycle;Max_cycle;Signal;HPM_P1;HPM_P2
2023/06/26 00:00:52;;;;;;;13.50;7.60;;;;;;;;;;5013000;28;20828;-77
2023/06/26 00:03:19;;;;;;;8.00;6.80;;;;;;;;;;5012900;28;20498;-77
2023/06/26 00:05:46;;;;;;;10.43;8.17;;;;;;;;;;5012981;28;20455;-77
2023/06/26 00:08:13;;;;;;;9.13;7.10;;;;;;;;;;5012839;28;20458;-77
2023/06/26 00:10:41;;;;;;;8.23;7.13;;;;;;;;;;5012788;28;20478;-76
2023/06/26 00:13:12;;;;;;;10.97;8.43;;;;;;;;;;5012894;28;20458;-77
2023/06/26 00:15:39;;;;;;;9.43;7.17;;;;;;;;;;5013074;28;20489;-76
2023/06/26 00:18:06;;;;;;;10.20;7.47;;;;;;;;;;5013700;28;20466;-76
2023/06/26 00:20:34;;;;;;;12.97;7.80;;;;;;;;;;5016371;28;20475;-77
2023/06/26 00:23:01;;;;;;;11.43;7.77;;;;;;;;;;5016438;28;20470;-77
2023/06/26 00:25:28;;;;;;;8.73;7.00;;;;;;;;;;5016384;28;21029;-76
2023/06/26 00:27:55;;;;;;;7.17;6.47;;;;;;;;;;5016173;28;20450;-76
2023/06/26 00:30:23;;;;;;;9.27;7.50;;;;;;;;;;5016053;28;20478;-76
2023/06/26 00:32:51;;;;;;;8.77;7.87;;;;;;;;;;5016362;28;20454;-77
2023/06/26 00:35:18;;;;;;;11.63;8.60;;;;;;;;;;5016194;28;20505;-77
2023/06/26 00:37:45;;;;;;;9.77;7.90;;;;;;;;;;5016140;28;20820;-77
2023/06/26 00:40:14;;;;;;;15.00;8.57;;;;;;;;;;5016051;28;20475;-76
2023/06/26 00:42:41;;;;;;;8.93;7.43;;;;;;;;;;5016273;28;20439;-77
2023/06/26 00:45:08;;;;;;;9.30;7.50;;;;;;;;;;5015772;28;20545;-77
2023/06/26 00:47:37;;;;;;;10.00;7.07;;;;;;;;;;5015697;28;20454;-77
2023/06/26 00:50:04;;;;;;;10.37;8.30;;;;;;;;;;5016077;28;20473;-77
2023/06/26 00:52:31;;;;;;;12.77;10.17;;;;;;;;;;5015940;28;20943;-77
2023/06/26 00:54:59;;;;;;;9.80;7.83;;;;;;;;;;5015779;28;20445;-77
2023/06/26 00:57:26;;;;;;;10.53;8.03;;;;;;;;;;5015552;28;20447;-77
2023/06/26 00:59:53;;;;;;;9.80;7.17;;;;;;;;;;5015877;28;20471;-77
2023/06/26 01:02:20;;;;;;;11.57;8.53;;;;;;;;;;5015569;28;20461;-76
2023/06/26 01:04:49;;;;;;;14.70;7.27;;;;;;;;;;5015797;28;20493;-77
2023/06/26 01:07:18;;;;;;;16.00;8.40;;;;;;;;;;5015446;28;20962;-76
2023/06/26 01:09:46;;;;;;;10.67;7.50;;;;;;;;;;5015535;28;20537;-77
2023/06/26 01:12:13;;;;;;;8.57;6.83;;;;;;;;;;5015614;28;20451;-76
2023/06/26 01:14:40;;;;;;;8.83;7.93;;;;;;;;;;5015465;28;20443;-76
2023/06/26 01:17:08;;;;;;;10.23;8.37;;;;;;;;;;5015496;28;20462;-77
2023/06/26 01:19:35;;;;;;;10.27;7.60;;;;;;;;;;5014913;28;20820;-76
2023/06/26 01:22:15;;;;;;;9.80;7.53;;;;;;;;;;5015541;28;20462;-76
2023/06/26 01:24:47;;;;;;;9.17;7.30;;;;;;;;;;5015293;28;20584;-76
2023/06/26 01:27:15;;;;;;;8.80;6.60;;;;;;;;;;5015192;28;20470;-76
2023/06/26 01:29:43;;;;;;;8.90;7.70;;;;;;;;;;5014573;28;20471;-76
2023/06/26 01:32:10;;;;;;;8.40;7.00;;;;;;;;;;5015246;28;20454;-77
2023/06/26 01:34:37;;;;;;;9.57;7.53;;;;;;;;;;5015210;28;20461;-77
2023/06/26 01:37:04;;;;;;;9.80;6.90;;;;;;;;;;5015052;28;20831;-76
2023/06/26 01:39:32;;;;;;;11.20;6.70;;;;;;;;;;5015186;28;20459;-77
2023/06/26 01:41:59;;;;;;;15.80;7.40;;;;;;;;;;5015127;28;20453;-76
2023/06/26 01:44:30;;;;;;;10.17;7.30;;;;;;;;;;5014401;28;20498;-77
2023/06/26 01:47:02;;;;;;;9.63;7.37;;;;;;;;;;5014849;28;20436;-76
2023/06/26 01:49:41;;;;;;;9.60;6.50;;;;;;;;;;5014748;28;21163;-76
2023/06/26 01:52:10;;;;;;;8.63;7.17;;;;;;;;;;5015171;28;20435;-77
2023/06/26 01:54:40;;;;;;;9.67;7.90;;;;;;;;;;5014769;28;20962;-76
2023/06/26 01:57:09;;;;;;;9.27;7.27;;;;;;;;;;5015046;28;20451;-77
2023/06/26 01:59:38;;;;;;;11.13;8.10;;;;;;;;;;5014528;28;20451;-77
2023/06/26 02:02:08;;;;;;;8.63;7.47;;;;;;;;;;5014968;28;20451;-77
2023/06/26 02:04:35;;;;;;;12.23;7.93;;;;;;;;;;5014974;28;20874;-77
2023/06/26 02:07:02;;;;;;;11.43;8.10;;;;;;;;;;5014544;28;20451;-77
2023/06/26 02:09:29;;;;;;;12.43;8.30;;;;;;;;;;5014275;28;20470;-77
2023/06/26 02:11:56;;;;;;;9.80;7.30;;;;;;;;;;5014630;28;20465;-77
2023/06/26 02:14:23;;;;;;;12.00;8.20;;;;;;;;;;5014435;28;20888;-77
2023/06/26 02:16:52;;;;;;;7.97;6.90;;;;;;;;;;5014352;28;20466;-77
2023/06/26 02:19:21;;;;;;;13.43;8.27;;;;;;;;;;5013956;28;20836;-77
2023/06/26 02:21:49;;;;;;;12.07;8.40;;;;;;;;;;5014214;28;20447;-77
2023/06/26 02:24:16;;;;;;;13.40;8.63;;;;;;;;;;5014257;28;20536;-77
2023/06/26 02:26:43;;;;;;;11.97;8.50;;;;;;;;;;5013952;28;20450;-77
2023/06/26 02:29:10;;;;;;;10.50;7.90;;;;;;;;;;5014319;28;20451;-77
2023/06/26 02:31:37;;;;;;;11.43;8.40;;;;;;;;;;5014133;28;20471;-77
2023/06/26 02:34:06;;;;;;;9.83;8.17;;;;;;;;;;5014197;28;20450;-77
2023/06/26 02:36:33;;;;;;;9.93;7.23;;;;;;;;;;5014080;28;20954;-77
2023/06/26 02:39:00;;;;;;;11.90;8.30;;;;;;;;;;5014024;28;20483;-77
2023/06/26 02:41:27;;;;;;;11.23;6.90;;;;;;;;;;5013009;28;20501;-77
2023/06/26 02:43:54;;;;;;;10.10;7.87;;;;;;;;;;5013736;28;20459;-76
2023/06/26 02:46:21;;;;;;;9.50;7.00;;;;;;;;;;5014049;28;20478;-76
2023/06/26 02:48:48;;;;;;;10.10;7.13;;;;;;;;;;5013837;28;20455;-76
2023/06/26 02:51:17;;;;;;;9.30;7.57;;;;;;;;;;5013864;28;20842;-77
2023/06/26 02:53:44;;;;;;;9.27;7.00;;;;;;;;;;5013516;28;20458;-76
2023/06/26 02:56:11;;;;;;;10.37;6.83;;;;;;;;;;5013585;28;20490;-76
2023/06/26 02:58:38;;;;;;;11.30;7.57;;;;;;;;;;5013242;28;20454;-76
2023/06/26 03:01:05;;;;;;;9.87;7.63;;;;;;;;;;5013501;28;20470;-76
2023/06/26 03:03:40;;;;;;;10.03;7.77;;;;;;;;;;5013459;28;20454;-77
2023/06/26 03:06:07;;;;;;;8.60;7.70;;;;;;;;;;5013307;28;20499;-76
2023/06/26 03:08:38;;;;;;;12.07;8.17;;;;;;;;;;5013115;28;21082;-76
2023/06/26 03:11:05;;;;;;;8.90;6.67;;;;;;;;;;5013321;28;20474;-76
2023/06/26 03:13:33;;;;;;;11.73;7.10;;;;;;;;;;5012967;28;20470;-76
2023/06/26 03:16:00;;;;;;;9.00;7.03;;;;;;;;;;5012488;28;20451;-76
2023/06/26 03:18:27;;;;;;;10.40;7.87;;;;;;;;;;5012381;28;20450;-77
2023/06/26 03:20:55;;;;;;;8.33;7.40;;;;;;;;;;5012436;28;20482;-77
2023/06/26 03:23:22;;;;;;;10.60;7.80;;;;;;;;;;5012266;28;20474;-77
2023/06/26 03:25:51;;;;;;;9.93;7.00;;;;;;;;;;5012480;28;20486;-77
2023/06/26 03:28:18;;;;;;;10.10;8.00;;;;;;;;;;5012211;28;20459;-77
2023/06/26 03:30:45;;;;;;;11.87;6.47;;;;;;;;;;5012449;28;20470;-77
2023/06/26 03:33:12;;;;;;;11.10;7.17;;;;;;;;;;5012348;28;20451;-77
2023/06/26 03:35:39;;;;;;;8.97;7.00;;;;;;;;;;5012210;28;20442;-76
2023/06/26 03:38:07;;;;;;;8.30;6.73;;;;;;;;;;5012122;28;20459;-76
2023/06/26 03:40:34;;;;;;;11.17;7.20;;;;;;;;;;5012248;28;20481;-77
2023/06/26 03:43:03;;;;;;;8.03;6.50;;;;;;;;;;5012112;28;20450;-76
2023/06/26 03:45:30;;;;;;;7.63;6.37;;;;;;;;;;5012220;28;20582;-76
2023/06/26 03:47:57;;;;;;;10.10;6.83;;;;;;;;;;5012086;28;20959;-77
2023/06/26 03:50:24;;;;;;;8.83;7.13;;;;;;;;;;5012081;28;20470;-77
2023/06/26 03:52:51;;;;;;;10.10;7.50;;;;;;;;;;5012792;28;20459;-76
2023/06/26 03:55:19;;;;;;;12.10;7.03;;;;;;;;;;5016104;28;20451;-76
2023/06/26 03:57:46;;;;;;;10.30;7.10;;;;;;;;;;5015862;28;20461;-76
2023/06/26 04:00:15;;;;;;;8.90;6.63;;;;;;;;;;5015970;28;20474;-77
2023/06/26 04:02:42;;;;;;;9.70;7.07;;;;;;;;;;5015862;28;20461;-77
2023/06/26 04:05:10;;;;;;;11.93;6.90;;;;;;;;;;5015909;28;20516;-77
2023/06/26 04:07:39;;;;;;;7.87;6.60;;;;;;;;;;5015908;28;20953;-77
2023/06/26 04:10:06;;;;;;;9.03;7.30;;;;;;;;;;5015979;28;20474;-77
2023/06/26 04:12:33;;;;;;;9.07;6.67;;;;;;;;;;5015711;28;20459;-76
2023/06/26 04:15:00;;;;;;;7.60;6.47;;;;;;;;;;5015646;28;20457;-76
2023/06/26 04:17:29;;;;;;;6.77;6.10;;;;;;;;;;5015456;28;20450;-76
2023/06/26 04:19:56;;;;;;;8.07;7.00;;;;;;;;;;5015489;28;20842;-77
2023/06/26 04:22:23;;;;;;;7.30;6.50;;;;;;;;;;5015767;28;20466;-77
2023/06/26 04:24:50;;;;;;;7.77;6.17;;;;;;;;;;5015519;28;20486;-76
2023/06/26 04:27:17;;;;;;;7.60;6.60;;;;;;;;;;5015166;28;20794;-76
2023/06/26 04:29:44;;;;;;;9.47;5.80;;;;;;;;;;5015678;28;20482;-77
2023/06/26 04:32:12;;;;;;;8.50;6.90;;;;;;;;;;5015416;28;20831;-77
2023/06/26 04:34:43;;;;;;;6.97;6.27;;;;;;;;;;5015497;28;20936;-76
2023/06/26 04:37:10;;;;;;;7.93;6.20;;;;;;;;;;5015144;28;20499;-77
2023/06/26 04:39:38;;;;;;;8.20;6.90;;;;;;;;;;5015303;28;20497;-77
2023/06/26 04:42:06;;;;;;;7.67;6.87;;;;;;;;;;5015423;28;20833;-77
2023/06/26 04:44:33;;;;;;;6.90;6.30;;;;;;;;;;5014980;28;20454;-77
2023/06/26 04:47:01;;;;;;;8.60;7.80;;;;;;;;;;5015380;28;20451;-77
2023/06/26 04:49:29;;;;;;;7.30;6.60;;;;;;;;;;5015280;28;20514;-77
2023/06/26 04:51:59;;;;;;;9.50;6.23;;;;;;;;;;5015809;28;20831;-77
2023/06/26 04:54:27;;;;;;;9.20;7.10;;;;;;;;;;5015195;28;20513;-77
2023/06/26 04:56:54;;;;;;;7.70;6.20;;;;;;;;;;5015188;28;20932;-77
2023/06/26 04:59:21;;;;;;;6.60;6.00;;;;;;;;;;5015578;28;20451;-76
2023/06/26 05:01:48;;;;;;;6.33;5.73;;;;;;;;;;5014729;28;20466;-76
2023/06/26 05:04:15;;;;;;;7.10;6.40;;;;;;;;;;5014149;28;20508;-76
2023/06/26 05:06:43;;;;;;;7.13;6.53;;;;;;;;;;5014347;28;20553;-76
2023/06/26 05:09:11;;;;;;;9.23;6.90;;;;;;;;;;5014810;28;20458;-76
2023/06/26 05:11:39;;;;;;;8.67;7.47;;;;;;;;;;5014909;28;20482;-76
2023/06/26 05:14:07;;;;;;;7.83;6.90;;;;;;;;;;5015021;28;20462;-76
2023/06/26 05:16:35;;;;;;;6.37;5.77;;;;;;;;;;5014602;28;20494;-77
2023/06/26 05:19:02;;;;;;;6.10;5.43;;;;;;;;;;5014799;28;20463;-76
2023/06/26 05:21:30;;;;;;;7.10;6.37;;;;;;;;;;5014652;28;20466;-77
2023/06/26 05:23:58;;;;;;;6.67;6.07;;;;;;;;;;5014496;28;20793;-76
2023/06/26 05:26:27;;;;;;;9.93;5.97;;;;;;;;;;5014351;28;20494;-76
2023/06/26 05:28:55;;;;;;;6.40;5.90;;;;;;;;;;5014477;28;20458;-76
2023/06/26 05:31:22;;;;;;;6.83;6.23;;;;;;;;;;5014380;28;20497;-77
2023/06/26 05:33:51;;;;;;;7.00;6.33;;;;;;;;;;5014536;28;20485;-77
2023/06/26 05:36:19;;;;;;;7.00;6.40;;;;;;;;;;5014337;28;20454;-77
2023/06/26 05:38:46;;;;;;;6.53;5.83;;;;;;;;;;5014096;28;20447;-76
2023/06/26 05:41:14;;;;;;;6.53;5.80;;;;;;;;;;5013706;28;20500;-76
2023/06/26 05:43:42;;;;;;;7.57;6.97;;;;;;;;;;5013854;28;20454;-76
2023/06/26 05:46:09;;;;;;;6.90;6.30;;;;;;;;;;5014227;28;20581;-76
2023/06/26 05:48:36;;;;;;;7.60;7.00;;;;;;;;;;5013877;28;20454;-76
2023/06/26 05:51:04;;;;;;;7.20;6.50;;;;;;;;;;5021441;22;20502;-77
2023/06/26 05:53:32;;;;;;;6.73;5.93;;;;;;;;;;5014192;28;20450;-76
2023/06/26 05:55:59;;;;;;;6.57;5.97;;;;;;;;;;5013993;28;20450;-76
2023/06/26 05:58:27;;;;;;;6.67;6.10;;;;;;;;;;5013784;28;20461;-77
2023/06/26 06:00:56;;;;;;;6.83;6.13;;;;;;;;;;5013723;28;20540;-76
2023/06/26 06:03:23;;;;;;;6.93;6.43;;;;;;;;;;5013727;28;20458;-77
2023/06/26 06:05:50;;;;;;;7.40;6.80;;;;;;;;;;5013632;28;20494;-77
2023/06/26 06:08:17;;;;;;;6.70;6.17;;;;;;;;;;5013710;28;20461;-77
2023/06/26 06:10:44;;;;;;;6.63;6.10;;;;;;;;;;5013475;28;20489;-76
2023/06/26 06:13:11;;;;;;;7.33;6.67;;;;;;;;;;5013837;28;20450;-76
2023/06/26 06:15:38;;;;;;;6.83;6.17;;;;;;;;;;5013416;28;20453;-77
2023/06/26 06:18:07;;;;;;;6.83;6.20;;;;;;;;;;5013457;28;20465;-77
2023/06/26 06:20:34;;;;;;;7.50;6.80;;;;;;;;;;5004061;28;20594;-77
2023/06/26 06:23:01;;;;;;;7.67;6.60;;;;;;;;;;5006717;28;20453;-76
2023/06/26 06:25:28;;;;;;;6.53;5.93;;;;;;;;;;5013004;28;20501;-77
2023/06/26 06:27:55;;;;;;;6.63;6.03;;;;;;;;;;5013113;28;20454;-77
2023/06/26 06:30:23;;;;;;;6.70;6.10;;;;;;;;;;5012465;28;20235;-76
2023/06/26 06:32:52;;;;;;;7.77;7.07;;;;;;;;;;5012432;28;20219;-76
2023/06/26 06:35:20;;;;;;;5.97;5.47;;;;;;;;;;5012871;28;20758;-77
2023/06/26 06:37:48;;;;;;;6.88;6.05;;;;;;;;;;5012471;28;20207;-76
2023/06/26 06:40:15;;;;;;;5.90;5.43;;;;;;;;;;5012989;28;20231;-76
2023/06/26 06:42:43;;;;;;;6.80;6.20;;;;;;;;;;5013094;28;20230;-77
2023/06/26 06:45:11;;;;;;;7.10;6.40;;;;;;;;;;5012578;28;20581;-77
2023/06/26 06:47:38;;;;;;;6.10;5.53;;;;;;;;;;5013084;28;20219;-76
2023/06/26 06:50:08;;;;;;;6.90;6.15;;;;;;;;;;5012836;28;20231;-76
2023/06/26 06:52:38;;;;;;;6.72;6.13;;;;;;;;;;5012564;28;20266;-76
2023/06/26 06:55:08;;;;;;;6.43;5.93;;;;;;;;;;5012465;28;20226;-76
2023/06/26 06:57:37;;;;;;;6.30;5.80;;;;;;;;;;5012776;28;20632;-78
2023/06/26 07:00:05;;;;;;;6.35;5.85;;;;;;;;;;5012480;28;20250;-77
2023/06/26 07:02:32;;;;;;;6.47;5.97;;;;;;;;;;5012720;28;20210;-76
2023/06/26 07:04:59;;;;;;;6.10;5.60;;;;;;;;;;5012323;28;20215;-76
2023/06/26 07:07:30;;;;;;;8.50;5.73;;;;;;;;;;5012365;28;20596;-77
2023/06/26 07:09:59;;;;;;;6.60;5.97;;;;;;;;;;5012191;28;20285;-77
2023/06/26 07:12:26;;;;;;;6.95;6.40;;;;;;;;;;5011943;28;20265;-78
2023/06/26 07:14:53;;;;;;;6.93;6.07;;;;;;;;;;5012273;28;20675;-77
2023/06/26 07:17:21;;;;;;;6.25;5.65;;;;;;;;;;5012465;28;20210;-77
2023/06/26 07:19:48;;;;;;;6.60;6.10;;;;;;;;;;5012060;28;20691;-77
2023/06/26 07:22:15;;;;;;;7.18;6.47;;;;;;;;;;5012150;28;20211;-76
2023/06/26 07:24:42;;;;;;;7.30;6.68;;;;;;;;;;5012304;28;20223;-76
2023/06/26 07:27:11;;;;;;;7.38;6.78;;;;;;;;;;5012987;28;20234;-76
2023/06/26 07:29:38;;;;;;;8.15;7.35;;;;;;;;;;5018469;28;20690;-76
2023/06/26 07:32:05;;;;;;;7.60;6.88;;;;;;;;;;5018588;28;20237;-76
2023/06/26 07:34:32;;;;;;;7.07;6.47;;;;;;;;;;5018781;28;20215;-75
2023/06/26 07:36:59;;;;;;;6.05;5.55;;;;;;;;;;5018997;28;20296;-76
2023/06/26 07:39:26;;;;;;;6.50;5.90;;;;;;;;;;5019268;28;20663;-77
2023/06/26 07:41:53;;;;;;;7.32;6.75;;;;;;;;;;5019106;28;20215;-77
2023/06/26 07:44:24;;;;;;;6.28;5.78;;;;;;;;;;5019435;28;20211;-76
2023/06/26 07:46:51;;;;;;;6.60;6.10;;;;;;;;;;5019549;28;20694;-75
2023/06/26 07:49:18;;;;;;;7.22;6.63;;;;;;;;;;5018907;28;20255;-76
2023/06/26 07:51:45;;;;;;;6.13;5.72;;;;;;;;;;5018676;28;20222;-76
2023/06/26 07:54:12;;;;;;;7.22;6.63;;;;;;;;;;5019141;28;20214;-75
2023/06/26 07:56:53;;;;;;;5.75;5.35;;;;;;;;;;5018845;28;20203;-74
2023/06/26 07:59:20;;;;;;;5.68;5.28;;;;;;;;;;5018882;28;20314;-75
2023/06/26 08:01:49;;;;;;;6.18;5.68;;;;;;;;;;5018979;28;20663;-75
2023/06/26 08:04:16;;;;;;;6.07;5.57;;;;;;;;;;5019253;28;20222;-75
2023/06/26 08:06:43;;;;;;;6.25;5.47;;;;;;;;;;5018449;28;20231;-75
2023/06/26 08:09:12;;;;;;;5.68;5.28;;;;;;;;;;5019172;28;20215;-74
2023/06/26 08:11:39;;;;;;;8.45;6.28;;;;;;;;;;5019016;28;20670;-76
2023/06/26 08:14:06;;;;;;;6.97;6.22;;;;;;;;;;5018651;28;20211;-76
2023/06/26 08:16:34;;;;;;;6.27;5.70;;;;;;;;;;5019021;28;20211;-76
2023/06/26 08:19:02;;;;;;;5.30;4.90;;;;;;;;;;5018835;28;20211;-76
2023/06/26 08:21:30;;;;;;;5.23;4.83;;;;;;;;;;5018897;28;20321;-76
2023/06/26 08:23:57;;;;;;;6.83;6.23;;;;;;;;;;5018587;28;20211;-75
2023/06/26 08:26:24;;;;;;;5.73;5.23;;;;;;;;;;5018566;28;20230;-77
2023/06/26 08:28:52;;;;;;;5.73;5.30;;;;;;;;;;5018811;28;20215;-77
2023/06/26 08:31:19;;;;;;;5.95;5.45;;;;;;;;;;5018235;28;20575;-76
2023/06/26 08:33:47;;;;;;;5.93;5.45;;;;;;;;;;5018504;28;20215;-77
2023/06/26 08:36:15;;;;;;;9.60;6.43;;;;;;;;;;5018305;28;20207;-77
2023/06/26 08:38:43;;;;;;;5.93;5.43;;;;;;;;;;5018518;28;20292;-78
2023/06/26 08:41:10;;;;;;;6.00;5.60;;;;;;;;;;5015665;28;20237;-75
2023/06/26 08:43:38;;;;;;;6.38;5.90;;;;;;;;;;5014113;28;20579;-75
2023/06/26 08:46:05;;;;;;;11.02;10.02;;;;;;;;;;5014616;28;20235;-75
2023/06/26 08:48:34;;;;;;;7.07;6.47;;;;;;;;;;5015087;28;20218;-75
2023/06/26 08:51:03;;;;;;;5.97;5.43;;;;;;;;;;5014973;28;20245;-76
2023/06/26 08:53:35;;;;;;;5.28;4.88;;;;;;;;;;5015037;28;20207;-76
2023/06/26 08:56:02;;;;;;;6.28;5.70;;;;;;;;;;5015128;28;20211;-76
2023/06/26 08:58:29;;;;;;;5.70;5.30;;;;;;;;;;5014754;28;20694;-75
2023/06/26 09:00:57;;;;;;;9.23;5.80;;;;;;;;;;5014878;28;20238;-75
2023/06/26 09:03:24;;;;;;;5.60;5.20;;;;;;;;;;5014608;28;20211;-76
2023/06/26 09:05:52;;;;;;;5.60;5.17;;;;;;;;;;5014903;28;20644;-76
2023/06/26 09:08:19;;;;;;;7.30;5.23;;;;;;;;;;5014591;28;20219;-75
2023/06/26 09:10:47;;;;;;;7.00;5.67;;;;;;;;;;5014668;28;20233;-76
2023/06/26 09:13:14;;;;;;;5.17;4.77;;;;;;;;;;5014864;28;20616;-75
2023/06/26 09:15:43;;;;;;;6.83;5.17;;;;;;;;;;5014763;28;20461;-76
2023/06/26 09:18:10;;;;;;;5.47;5.03;;;;;;;;;;5014975;28;20563;-76
2023/06/26 09:20:38;;;;;;;6.13;5.57;;;;;;;;;;5014318;28;20473;-76
2023/06/26 09:23:05;;;;;;;5.40;5.00;;;;;;;;;;5014511;28;20826;-75
2023/06/26 09:25:33;;;;;;;5.60;5.10;;;;;;;;;;5014086;28;20465;-76
2023/06/26 09:28:01;;;;;;;6.17;5.67;;;;;;;;;;5014266;28;20501;-76
2023/06/26 09:30:28;;;;;;;4.80;4.40;;;;;;;;;;5014103;28;20635;-75
2023/06/26 09:32:56;;;;;;;5.90;5.40;;;;;;;;;;5014355;28;20219;-75
2023/06/26 09:35:23;;;;;;;6.30;5.70;;;;;;;;;;5014222;28;20681;-75
2023/06/26 09:37:50;;;;;;;6.00;5.37;;;;;;;;;;5014073;28;20226;-76
2023/06/26 09:40:17;;;;;;;5.57;5.13;;;;;;;;;;5014155;28;20242;-76
2023/06/26 09:42:44;;;;;;;5.57;5.07;;;;;;;;;;5014128;28;20211;-74
2023/06/26 09:45:20;;;;;;;5.50;5.00;;;;;;;;;;5012897;28;20207;-76
2023/06/26 09:47:47;;;;;;;5.60;5.10;;;;;;;;;;5013917;28;20242;-76
2023/06/26 09:50:22;;;;;;;6.17;5.67;;;;;;;;;;5010015;28;20485;-75
2023/06/26 09:52:52;;;;;;;6.00;5.50;;;;;;;;;;5012213;28;20486;-76
2023/06/26 09:55:21;;;;;;;6.50;5.90;;;;;;;;;;5011645;28;20466;-75
2023/06/26 09:57:49;;;;;;;6.87;5.97;;;;;;;;;;5012812;28;20451;-75
2023/06/26 10:00:17;;;;;;;7.00;6.43;;;;;;;;;;5008232;28;20227;-76
2023/06/26 10:02:45;;;;;;;6.33;5.83;;;;;;;;;;5014276;28;20872;-76
2023/06/26 10:05:13;;;;;;;9.37;5.80;;;;;;;;;;5005772;28;20455;-76
2023/06/26 10:07:40;;;;;;;6.10;5.60;;;;;;;;;;4993516;28;20495;-76
2023/06/26 10:10:09;;;;;;;9.43;6.93;;;;;;;;;;4999847;28;20231;-75
2023/06/26 10:12:36;;;;;;;6.93;6.33;;;;;;;;;;5003485;28;20534;-78
2023/06/26 10:15:04;;;;;;;7.13;6.43;;;;;;;;;;4996599;28;20545;-78
2023/06/26 10:17:33;;;;;;;7.03;6.53;;;;;;;;;;4996016;28;20936;-78
2023/06/26 10:20:03;;;;;;;7.00;6.40;;;;;;;;;;5000089;28;20847;-78
2023/06/26 10:22:31;;;;;;;7.03;6.27;;;;;;;;;;5014753;28;20460;-78
2023/06/26 10:25:01;;;;;;;6.17;5.60;;;;;;;;;;5007936;28;20215;-75
2023/06/26 10:27:29;;;;;;;6.30;5.80;;;;;;;;;;5001457;28;20230;-76
2023/06/26 10:29:59;;;;;;;6.33;5.83;;;;;;;;;;4993823;28;20253;-76
2023/06/26 10:32:27;;;;;;;6.90;6.30;;;;;;;;;;4996104;28;20435;-76
2023/06/26 10:34:55;;;;;;;6.97;6.40;;;;;;;;;;5008807;28;20211;-76
2023/06/26 10:37:42;;;;;;;6.60;6.00;;;;;;;;;;5001263;28;20215;-76
2023/06/26 10:40:09;;;;;;;7.03;6.37;;;;;;;;;;4993813;28;20846;-76
2023/06/26 10:42:37;;;;;;;6.73;6.13;;;;;;;;;;4993699;28;20455;-76
2023/06/26 10:45:11;;;;;;;7.57;6.90;;;;;;;;;;4993413;28;20467;-76
2023/06/26 10:47:39;;;;;;;6.80;6.20;;;;;;;;;;4993196;28;20475;-76
2023/06/26 10:50:19;;;;;;;6.37;5.87;;;;;;;;;;4993140;28;20529;-77
2023/06/26 10:52:47;;;;;;;6.73;6.13;;;;;;;;;;4993004;28;20892;-76
2023/06/26 10:55:15;;;;;;;6.23;5.73;;;;;;;;;;4993237;28;20455;-76
2023/06/26 10:57:46;;;;;;;7.23;6.63;;;;;;;;;;4992910;28;20509;-77
2023/06/26 11:00:15;;;;;;;6.57;5.97;;;;;;;;;;4992611;28;20471;-77
2023/06/26 11:02:51;;;;;;;6.43;5.93;;;;;;;;;;5005754;28;20827;-76
2023/06/26 11:05:28;;;;;;;7.20;6.60;;;;;;;;;;5007609;28;20870;-78
2023/06/26 11:08:08;;;;;;;7.27;6.53;;;;;;;;;;5009578;28;20227;-78
2023/06/26 11:10:52;;;;;;;6.70;6.10;;;;;;;;;;5010464;28;20818;-78
2023/06/26 11:13:19;;;;;;;6.00;5.50;;;;;;;;;;5009500;28;20239;-78
2023/06/26 11:15:47;;;;;;;6.90;6.20;;;;;;;;;;5011751;28;20451;-77
2023/06/26 11:18:14;;;;;;;6.70;6.03;;;;;;;;;;5011672;28;20203;-78
2023/06/26 11:20:41;;;;;;;6.23;5.70;;;;;;;;;;4992123;28;20861;-77
2023/06/26 11:23:11;;;;;;;5.43;5.03;;;;;;;;;;5001907;28;21006;-78
2023/06/26 11:25:38;;;;;;;6.03;5.53;;;;;;;;;;5011546;28;20462;-77
2023/06/26 11:28:06;;;;;;;5.57;5.17;;;;;;;;;;5010872;28;20493;-77
2023/06/26 11:30:33;;;;;;;6.47;5.87;;;;;;;;;;5017097;28;20478;-77
2023/06/26 11:33:04;;;;;;;6.83;6.13;;;;;;;;;;5011351;28;20529;-78
2023/06/26 11:35:32;;;;;;;6.90;6.30;;;;;;;;;;5007768;28;20930;-77
2023/06/26 11:38:00;;;;;;;7.17;6.47;;;;;;;;;;5009992;28;20878;-76
2023/06/26 11:40:31;;;;;;;6.80;5.87;;;;;;;;;;5010710;28;21007;-77
2023/06/26 11:42:59;;;;;;;9.73;6.33;;;;;;;;;;5009186;28;20462;-76
2023/06/26 11:45:26;;;;;;;7.17;6.47;;;;;;;;;;5007409;28;20457;-76
2023/06/26 11:47:53;;;;;;;6.83;6.23;;;;;;;;;;5005805;28;20502;-76
2023/06/26 11:50:23;;;;;;;7.23;6.53;;;;;;;;;;5005415;28;20501;-76
2023/06/26 11:52:55;;;;;;;6.50;5.90;;;;;;;;;;5001231;28;20481;-77
2023/06/26 11:55:22;;;;;;;6.60;5.87;;;;;;;;;;5009991;28;20981;-75
2023/06/26 11:57:51;;;;;;;7.77;6.97;;;;;;;;;;5001375;28;20450;-79
2023/06/26 12:00:18;;;;;;;7.20;6.67;;;;;;;;;;5009024;28;20858;-77
2023/06/26 12:02:46;;;;;;;7.27;5.87;;;;;;;;;;5016463;28;20458;-77
2023/06/26 12:05:14;;;;;;;7.20;6.50;;;;;;;;;;5010308;28;20462;-77
2023/06/26 12:07:42;;;;;;;6.40;5.57;;;;;;;;;;5012034;28;20490;-77
2023/06/26 12:10:10;;;;;;;5.13;4.73;;;;;;;;;;5011694;28;20484;-78
2023/06/26 12:12:37;;;;;;;9.73;8.73;;;;;;;;;;5010218;28;20883;-75
2023/06/26 12:15:07;;;;;;;7.00;6.30;;;;;;;;;;5027474;28;20479;-76
2023/06/26 12:17:34;;;;;;;6.27;5.27;;;;;;;;;;5035691;28;20949;-76
2023/06/26 12:20:01;;;;;;;5.27;4.77;;;;;;;;;;5031915;28;20481;-77
2023/06/26 12:22:35;;;;;;;24.40;10.67;;;;;;;;;;5015630;28;20479;-76
2023/06/26 12:25:02;;;;;;;4.80;4.40;;;;;;;;;;5024438;28;20536;-75
2023/06/26 12:27:30;;;;;;;6.87;4.90;;;;;;;;;;5035481;28;20481;-75
2023/06/26 12:29:57;;;;;;;4.60;4.20;;;;;;;;;;5035819;28;20974;-76
2023/06/26 12:32:26;;;;;;;4.90;4.50;;;;;;;;;;5035564;28;20457;-75
2023/06/26 12:34:54;;;;;;;7.03;4.87;;;;;;;;;;5031542;28;20463;-76
2023/06/26 12:37:21;;;;;;;5.63;5.10;;;;;;;;;;5015552;28;20458;-75
2023/06/26 12:39:49;;;;;;;8.73;4.80;;;;;;;;;;5015280;28;20485;-76
2023/06/26 12:42:16;;;;;;;5.00;4.53;;;;;;;;;;5015933;28;20451;-75
2023/06/26 12:44:43;;;;;;;6.17;5.07;;;;;;;;;;5015387;28;20465;-75
2023/06/26 12:47:13;;;;;;;4.90;4.50;;;;;;;;;;5015239;28;20460;-75
2023/06/26 12:49:42;;;;;;;5.60;5.00;;;;;;;;;;5015690;28;20569;-76
2023/06/26 12:52:10;;;;;;;5.90;4.80;;;;;;;;;;5015476;28;20462;-74
2023/06/26 12:54:38;;;;;;;6.80;4.67;;;;;;;;;;5014627;28;20451;-74
2023/06/26 12:57:05;;;;;;;5.00;4.60;;;;;;;;;;5015604;28;21207;-74
2023/06/26 12:59:32;;;;;;;6.53;5.93;;;;;;;;;;5015322;28;20465;-74
2023/06/26 13:02:00;;;;;;;4.60;4.10;;;;;;;;;;5014574;28;20457;-75
2023/06/26 13:04:27;;;;;;;7.00;4.70;;;;;;;;;;5015305;28;20477;-74
2023/06/26 13:06:56;;;;;;;5.70;5.20;;;;;;;;;;5011857;28;20462;-75
2023/06/26 13:09:23;;;;;;;5.70;5.10;;;;;;;;;;5015263;28;20578;-75
2023/06/26 13:11:50;;;;;;;4.67;4.30;;;;;;;;;;4995692;28;20479;-75
2023/06/26 13:14:17;;;;;;;5.77;5.17;;;;;;;;;;5014310;28;20455;-74
2023/06/26 13:16:45;;;;;;;5.00;4.60;;;;;;;;;;5015110;28;20459;-75
2023/06/26 13:19:12;;;;;;;5.60;4.90;;;;;;;;;;5015259;28;20461;-75
2023/06/26 13:21:39;;;;;;;5.47;5.00;;;;;;;;;;5015510;28;20480;-76
2023/06/26 13:24:09;;;;;;;6.47;5.03;;;;;;;;;;5014939;28;20462;-75
2023/06/26 13:26:36;;;;;;;8.00;5.27;;;;;;;;;;5012876;28;20546;-75
2023/06/26 13:29:03;;;;;;;8.00;4.73;;;;;;;;;;5014742;28;20865;-76
2023/06/26 13:31:30;;;;;;;9.23;4.97;;;;;;;;;;5014914;28;20481;-76
2023/06/26 13:33:58;;;;;;;8.70;5.23;;;;;;;;;;5014591;28;20454;-75
2023/06/26 13:36:26;;;;;;;5.27;4.87;;;;;;;;;;5014964;28;20822;-75
2023/06/26 13:38:55;;;;;;;10.37;5.30;;;;;;;;;;5007718;28;20452;-76
2023/06/26 13:41:24;;;;;;;7.70;5.53;;;;;;;;;;4999585;28;20482;-77
2023/06/26 13:43:51;;;;;;;5.27;4.77;;;;;;;;;;5014657;28;20439;-77
2023/06/26 13:46:18;;;;;;;11.23;5.30;;;;;;;;;;4995628;28;20822;-77
2023/06/26 13:48:45;;;;;;;6.53;5.20;;;;;;;;;;4995114;28;20492;-77
2023/06/26 13:51:13;;;;;;;5.30;4.80;;;;;;;;;;4994673;28;20587;-77
2023/06/26 13:53:40;;;;;;;5.00;4.60;;;;;;;;;;5003016;28;20946;-75
2023/06/26 13:56:07;;;;;;;4.97;4.57;;;;;;;;;;5014396;28;20478;-75
2023/06/26 13:58:38;;;;;;;6.03;5.30;;;;;;;;;;5014360;28;20478;-74
2023/06/26 14:01:05;;;;;;;4.73;4.23;;;;;;;;;;5013918;28;20479;-75
2023/06/26 14:03:32;;;;;;;5.50;4.60;;;;;;;;;;5014301;28;20454;-75
2023/06/26 14:05:59;;;;;;;5.13;4.73;;;;;;;;;;5014192;28;20942;-77
2023/06/26 14:08:26;;;;;;;4.80;4.30;;;;;;;;;;5014234;28;20570;-75
2023/06/26 14:10:53;;;;;;;8.50;5.20;;;;;;;;;;5013873;28;20474;-74
2023/06/26 14:13:21;;;;;;;6.43;5.87;;;;;;;;;;5013651;28;20459;-74
2023/06/26 14:15:52;;;;;;;7.47;5.73;;;;;;;;;;5013948;28;20466;-77
2023/06/26 14:18:20;;;;;;;8.83;5.93;;;;;;;;;;5013901;28;20951;-76
2023/06/26 14:20:48;;;;;;;6.70;6.10;;;;;;;;;;5013840;28;20521;-77
2023/06/26 14:23:15;;;;;;;6.10;5.50;;;;;;;;;;5013529;28;20485;-75
2023/06/26 14:25:42;;;;;;;5.40;5.00;;;;;;;;;;5011369;28;20494;-76
2023/06/26 14:28:09;;;;;;;6.23;5.73;;;;;;;;;;5011751;28;21010;-77
2023/06/26 14:30:36;;;;;;;5.40;5.00;;;;;;;;;;5011719;28;20482;-76
2023/06/26 14:33:04;;;;;;;6.13;5.60;;;;;;;;;;5011738;28;20455;-76
2023/06/26 14:35:32;;;;;;;8.50;7.60;;;;;;;;;;5012196;28;20463;-76
2023/06/26 14:37:59;;;;;;;9.40;8.43;;;;;;;;;;5012410;28;20520;-76
2023/06/26 14:40:26;;;;;;;4.97;4.57;;;;;;;;;;5012639;28;20465;-76
2023/06/26 14:42:53;;;;;;;6.50;5.47;;;;;;;;;;5013385;28;20455;-77
2023/06/26 14:45:21;;;;;;;5.60;5.10;;;;;;;;;;5013840;28;20807;-77